»·PEaware :: N7253G KEUG-KPDX

N7253G :: KEUG-KPDX

FLIGHT INFORMATION

Flight Status: Arrived
Operator: Privately registered:
United States
More flights under this callsign
Pilot: Glenn J. (29121)
Aircraft: CESSNA 172 SKYHAWK
(C172)
More flights by this aircraft type
Origin: KEUG Mahlon Sweet
United States
Destination: KPDX Portland Intl
United States
More flights between these airports :: More routes between these airports
Route: DIRECT
File this flight plan on PilotEdge
Remarks:
Altitude:
(Current/Filed)
3,500ft
Speed:
(Current/Filed)
110kts
Departed: 03-Jul-20 03:10 PM
Arrived: 03-Jul-20 04:05 PM
Distance/Time
Traveled:
92nm/0:55
Distance/Time
To Go:
Arrived

Flight Plot

Page will automatically refresh every two minutes.


Map Options




Map Legend


Flown Route
Filed Route
Departure Airport
Arrival Airport
Navaid (VOR, NDB)
Fix

Horizontal Profiles

Position Reports

Time Latitude Longitude Heading Altitude Ground
Speed
03-Jul-20 14:56 44.121858 -123.212527 19 368ft 0kts
03-Jul-20 14:57 44.121858 -123.212527 19 368ft 0kts
03-Jul-20 14:58 44.121858 -123.212527 19 368ft 0kts
03-Jul-20 14:58 44.121858 -123.212527 19 368ft 0kts
03-Jul-20 15:00 44.121858 -123.212527 19 368ft 0kts
03-Jul-20 15:01 44.121858 -123.212527 19 368ft 0kts
03-Jul-20 15:01 44.121861 -123.212525 19 368ft 0kts
03-Jul-20 15:02 44.122537 -123.212599 12 368ft 1kts
03-Jul-20 15:04 44.126300 -123.210377 299 366ft 10kts
03-Jul-20 15:04 44.126295 -123.216058 269 366ft 17kts
03-Jul-20 15:05 44.130074 -123.217166 358 364ft 19kts
03-Jul-20 15:07 44.134238 -123.216801 0 362ft 0kts
03-Jul-20 15:07 44.135314 -123.217697 267 362ft 0kts
03-Jul-20 15:08 44.134973 -123.219083 186 363ft 14kts
03-Jul-20 15:09 44.116413 -123.219111 180 721ft 80kts
03-Jul-20 15:10 44.104783 -123.236686 298 1311ft 78kts
03-Jul-20 15:11 44.127872 -123.241416 2 1714ft 96kts
03-Jul-20 15:12 44.149205 -123.217075 41 1995ft 117kts
03-Jul-20 15:13 44.157257 -123.176666 96 1989ft 119kts
03-Jul-20 15:14 44.154116 -123.131868 67 1987ft 114kts
03-Jul-20 15:15 44.179875 -123.108742 21 1990ft 112kts
03-Jul-20 15:16 44.208815 -123.092450 21 1990ft 112kts
03-Jul-20 15:17 44.238028 -123.076172 18 1991ft 114kts
03-Jul-20 15:18 44.268847 -123.062995 9 1990ft 116kts
03-Jul-20 15:19 44.301174 -123.059933 359 1990ft 116kts
03-Jul-20 15:20 44.333606 -123.059805 359 1990ft 116kts
03-Jul-20 15:21 44.366381 -123.059467 359 1988ft 120kts
03-Jul-20 15:22 44.400190 -123.059567 349 1986ft 121kts
03-Jul-20 15:23 44.433854 -123.062757 1 1984ft 122kts
03-Jul-20 15:24 44.467488 -123.062400 2 1981ft 118kts
03-Jul-20 15:25 44.499713 -123.053993 9 1980ft 118kts
03-Jul-20 15:26 44.529046 -123.043084 10 2516ft 93kts
03-Jul-20 15:27 44.553229 -123.033540 10 2999ft 97kts
03-Jul-20 15:28 44.581773 -123.021853 12 2982ft 111kts
03-Jul-20 15:29 44.611917 -123.009354 13 2979ft 113kts
03-Jul-20 15:30 44.642180 -122.996801 13 2977ft 113kts
03-Jul-20 15:31 44.671488 -122.984660 13 3311ft 104kts
03-Jul-20 15:32 44.699392 -122.973091 13 3483ft 107kts
03-Jul-20 15:33 44.728231 -122.961076 14 3481ft 108kts
03-Jul-20 15:34 44.757643 -122.948840 14 3480ft 113kts
03-Jul-20 15:35 44.788364 -122.936034 14 3478ft 115kts
03-Jul-20 15:36 44.819246 -122.923142 14 3478ft 116kts
03-Jul-20 15:37 44.850246 -122.910193 14 3478ft 116kts
03-Jul-20 15:38 44.881362 -122.897190 14 3479ft 118kts
03-Jul-20 15:39 44.913717 -122.883658 14 3478ft 122kts
03-Jul-20 15:40 44.946420 -122.869949 14 3478ft 122kts
03-Jul-20 15:41 44.979172 -122.856204 14 3481ft 122kts
03-Jul-20 15:42 45.011884 -122.842461 14 3485ft 122kts
03-Jul-20 15:43 45.044623 -122.828690 14 3489ft 122kts
03-Jul-20 15:44 45.077336 -122.814913 14 3492ft 122kts
03-Jul-20 15:45 45.109614 -122.801304 14 3496ft 122kts
03-Jul-20 15:46 45.142384 -122.787550 14 3497ft 122kts
03-Jul-20 15:47 45.175260 -122.773667 15 3497ft 122kts
03-Jul-20 15:48 45.207721 -122.759906 15 3497ft 122kts
03-Jul-20 15:49 45.240556 -122.745968 15 3497ft 122kts
03-Jul-20 15:50 45.273385 -122.732016 15 3497ft 122kts
03-Jul-20 15:51 45.306702 -122.717835 14 3497ft 122kts
03-Jul-20 15:52 45.339234 -122.703974 14 3496ft 121kts
03-Jul-20 15:53 45.371213 -122.690325 13 3496ft 117kts
03-Jul-20 15:54 45.401087 -122.677573 13 3497ft 117kts
03-Jul-20 15:55 45.432522 -122.664137 12 3497ft 117kts
03-Jul-20 15:56 45.462832 -122.647751 17 3439ft 110kts
03-Jul-20 15:57 45.487780 -122.625784 39 2990ft 102kts
03-Jul-20 15:58 45.504827 -122.594576 55 2481ft 98kts
03-Jul-20 15:59 45.518163 -122.562468 55 2011ft 90kts
03-Jul-20 16:00 45.538773 -122.544615 24 1145ft 89kts
03-Jul-20 16:01 45.557913 -122.528346 7 852ft 72kts
03-Jul-20 16:02 45.573646 -122.543430 304 419ft 66kts
03-Jul-20 16:03 45.582917 -122.565243 299 112ft 58kts
03-Jul-20 16:04 45.586356 -122.576342 210 29ft 14kts
03-Jul-20 16:05 45.584475 -122.576364 204 26ft 0kts

Navigation Log

Ident Type
Flight plan parsing failed, navigation log unavailable